Time;durP1;ratioP1;P1;durP2;ratioP2;P2;SDS_P1;SDS_P2;PMS_P1;PMS_P2;Temp;Humidity;BMP_temperature;BMP_pressure;BME280_temperature;BME280_humidity;BME280_pressure;Samples;Min_cycle;Max_cycle;Signal;HPM_P1;HPM_P2
2021/04/21 00:00:39;;;;;;;;;79.25;60.50;;;;;4.82;100.00;99496.47;3570947;40;9274;-60
2021/04/21 00:03:06;;;;;;;;;70.75;54.50;;;;;4.49;100.00;99504.84;3582534;40;9761;-61
2021/04/21 00:05:34;;;;;;;;;72.00;54.50;;;;;4.94;100.00;99508.38;3570772;40;9391;-61
2021/04/21 00:08:01;;;;;;;;;69.50;56.25;;;;;4.59;100.00;99508.88;3569105;40;9470;-61
2021/04/21 00:10:29;;;;;;;;;66.50;49.75;;;;;4.90;100.00;99505.00;3569823;40;9766;-61
2021/04/21 00:12:57;;;;;;;;;63.00;48.75;;;;;4.46;100.00;99504.97;3574293;40;9753;-60
2021/04/21 00:15:25;;;;;;;;;62.50;46.00;;;;;4.59;100.00;99500.91;3571066;40;10117;-61
2021/04/21 00:18:02;;;;;;;;;67.75;52.00;;;;;4.59;100.00;99498.25;3571682;40;9730;-61
2021/04/21 00:20:31;;;;;;;;;77.25;59.25;;;;;4.48;100.00;99505.78;3581536;40;9554;-60
2021/04/21 00:23:04;;;;;;;;;80.75;60.25;;;;;4.83;100.00;99506.16;3571839;40;9616;-61
2021/04/21 00:25:33;;;;;;;;;83.00;59.25;;;;;4.92;100.00;99497.78;3575021;40;9460;-61
2021/04/21 00:28:04;;;;;;;;;79.50;60.00;;;;;5.33;100.00;99495.19;3571097;40;9488;-61
2021/04/21 00:30:34;;;;;;;;;67.00;50.00;;;;;5.76;99.83;99493.28;3568237;40;9449;-61
2021/04/21 00:33:02;;;;;;;;;79.75;60.00;;;;;5.50;99.32;99487.34;3567632;40;9501;-61
2021/04/21 00:35:39;;;;;;;;;85.50;61.25;;;;;5.46;99.99;99491.06;3559655;40;9763;-61
2021/04/21 00:38:15;;;;;;;;;89.75;65.00;;;;;5.52;100.00;99489.06;3566148;40;9359;-61
2021/04/21 00:40:44;;;;;;;;;92.50;68.25;;;;;5.55;100.00;99483.59;3571147;40;9249;-61
2021/04/21 00:43:32;;;;;;;;;91.50;68.00;;;;;5.56;100.00;99485.34;3571586;40;9742;-61
2021/04/21 00:46:29;;;;;;;;;88.75;66.75;;;;;5.44;100.00;99479.59;3569899;40;9292;-61
2021/04/21 00:49:23;;;;;;;;;84.00;63.50;;;;;5.60;100.00;99470.94;3572296;40;9729;-61
2021/04/21 00:51:58;;;;;;;;;92.75;69.00;;;;;5.69;100.00;99471.41;3575140;40;9532;-62
2021/04/21 00:54:43;;;;;;;;;90.25;65.25;;;;;5.97;100.00;99483.47;3571333;40;9478;-61
2021/04/21 00:57:38;;;;;;;;;87.25;64.00;;;;;6.03;100.00;99479.66;3569546;40;9585;-61
2021/04/21 01:00:19;;;;;;;;;85.75;65.50;;;;;5.88;100.00;99471.41;3567865;40;9838;-61
2021/04/21 01:02:56;;;;;;;;;93.75;65.75;;;;;5.83;100.00;99472.56;3569828;40;9552;-61
2021/04/21 01:05:31;;;;;;;;;86.75;64.75;;;;;5.87;100.00;99476.81;3584384;40;9619;-61
2021/04/21 01:08:04;;;;;;;;;83.75;62.50;;;;;5.36;100.00;99471.09;3571387;40;9352;-61
2021/04/21 01:10:55;;;;;;;;;88.50;63.25;;;;;5.41;100.00;99476.22;3581128;40;9521;-61
2021/04/21 01:13:28;;;;;;;;;70.25;53.25;;;;;4.85;100.00;99483.03;3569853;40;10202;-61
2021/04/21 01:15:57;;;;;;;;;66.50;43.00;;;;;4.86;100.00;99484.75;3571180;40;10189;-61
2021/04/21 01:18:29;;;;;;;;;56.25;44.75;;;;;4.75;100.00;99476.34;3583626;40;10174;-61
2021/04/21 01:21:11;;;;;;;;;63.75;51.00;;;;;4.30;100.00;99480.81;3571561;40;9746;-61
2021/04/21 01:24:06;;;;;;;;;66.75;55.50;;;;;4.51;100.00;99479.09;3572638;40;9695;-61
2021/04/21 01:27:07;;;;;;;;;61.25;48.25;;;;;4.69;100.00;99479.28;3586344;40;10403;-61
2021/04/21 01:29:48;;;;;;;;;80.75;58.50;;;;;5.00;100.00;99482.41;3570841;40;9548;-61
2021/04/21 01:32:28;;;;;;;;;126.00;96.00;;;;;5.48;100.00;99478.53;3570466;40;9446;-61
2021/04/21 01:34:58;;;;;;;;;123.00;94.50;;;;;5.82;100.00;99482.38;3567031;40;9233;-61
2021/04/21 01:37:31;;;;;;;;;109.25;78.25;;;;;5.87;100.00;99483.03;3575303;40;9324;-61
2021/04/21 01:40:38;;;;;;;;;99.00;71.00;;;;;6.07;100.00;99481.25;3575974;40;9677;-61
2021/04/21 01:43:18;;;;;;;;;95.50;70.75;;;;;6.01;100.00;99478.88;3570657;40;9265;-60
2021/04/21 01:45:55;;;;;;;;;85.75;65.25;;;;;5.96;100.00;99476.44;3575792;40;9496;-64
2021/04/21 01:48:25;;;;;;;;;92.00;65.25;;;;;5.90;100.00;99477.56;3571031;40;10166;-61
2021/04/21 01:50:53;;;;;;;;;90.50;62.50;;;;;5.96;100.00;99472.91;3570450;40;9637;-62
2021/04/21 01:53:40;;;;;;;;;88.50;64.50;;;;;5.93;100.00;99474.78;3569860;40;9721;-61
2021/04/21 01:56:39;;;;;;;;;81.75;59.75;;;;;5.68;100.00;99474.97;3570903;40;9715;-61
2021/04/21 01:59:21;;;;;;;;;85.00;59.75;;;;;5.88;100.00;99474.09;3570365;40;9882;-61
2021/04/21 02:02:00;;;;;;;;;83.75;60.25;;;;;5.69;100.00;99481.19;3570158;40;9826;-61
2021/04/21 02:05:12;;;;;;;;;87.00;60.00;;;;;5.64;100.00;99469.88;3569595;40;9894;-61
2021/04/21 02:07:55;;;;;;;;;83.75;59.50;;;;;5.22;100.00;99476.16;3571154;40;9741;-61
2021/04/21 02:11:03;;;;;;;;;60.75;45.00;;;;;4.17;100.00;99464.47;3571864;40;10198;-61
2021/04/21 02:13:46;;;;;;;;;60.50;44.75;;;;;4.25;100.00;99472.16;3580743;40;10282;-61
2021/04/21 02:16:44;;;;;;;;;71.00;50.00;;;;;4.98;100.00;99473.59;3571647;40;10324;-61
2021/04/21 02:19:38;;;;;;;;;73.50;55.00;;;;;4.98;100.00;99468.28;3571729;40;9802;-61
2021/04/21 02:22:40;;;;;;;;;74.25;54.75;;;;;5.22;100.00;99478.81;3583111;40;10224;-61
2021/04/21 02:25:37;;;;;;;;;84.50;62.75;;;;;5.35;100.00;99464.03;3558769;40;9358;-61
2021/04/21 02:28:37;;;;;;;;;88.00;63.50;;;;;5.23;100.00;99473.41;3582630;40;9308;-61
2021/04/21 02:31:37;;;;;;;;;80.50;61.50;;;;;5.28;100.00;99473.22;3568416;40;9802;-61
2021/04/21 02:34:40;;;;;;;;;86.00;61.00;;;;;5.32;100.00;99476.59;3567648;40;9339;-61
2021/04/21 02:37:24;;;;;;;;;147.00;126.25;;;;;5.13;100.00;99476.53;3570345;40;9278;-61
2021/04/21 02:40:03;;;;;;;;;94.25;72.75;;;;;5.03;100.00;99473.41;3566802;40;9241;-61
2021/04/21 02:42:50;;;;;;;;;80.50;61.00;;;;;4.64;100.00;99473.28;3572211;40;9466;-61
2021/04/21 02:45:33;;;;;;;;;78.50;58.50;;;;;4.64;100.00;99470.63;3573264;40;9449;-60
2021/04/21 02:48:31;;;;;;;;;77.00;55.50;;;;;4.40;100.00;99468.03;3576054;40;9770;-61
2021/04/21 02:51:34;;;;;;;;;77.25;56.75;;;;;4.10;100.00;99467.41;3567480;40;9648;-61
2021/04/21 02:54:45;;;;;;;;;84.00;59.25;;;;;3.94;100.00;99472.44;3571584;40;9631;-61
2021/04/21 02:57:56;;;;;;;;;65.50;51.00;;;;;4.03;100.00;99472.13;3573458;40;10020;-61
2021/04/21 03:00:30;;;;;;;;;69.75;52.00;;;;;4.23;100.00;99483.75;3551890;40;9824;-61
2021/04/21 03:03:18;;;;;;;;;62.50;48.25;;;;;4.00;100.00;99482.84;3576648;40;9603;-61
2021/04/21 03:06:04;;;;;;;;;62.50;50.25;;;;;4.28;100.00;99487.97;3575033;40;10393;-61
2021/04/21 03:08:49;;;;;;;;;73.50;57.25;;;;;4.08;100.00;99482.53;3566001;40;10223;-61
2021/04/21 03:11:26;;;;;;;;;76.50;58.50;;;;;4.35;100.00;99483.28;3566672;40;9658;-60
2021/04/21 03:14:13;;;;;;;;;75.50;59.50;;;;;4.64;100.00;99483.91;3572935;40;9319;-62
2021/04/21 03:16:47;;;;;;;;;77.75;59.00;;;;;4.52;100.00;99496.75;3567448;40;9507;-61
2021/04/21 03:19:19;;;;;;;;;80.25;58.00;;;;;4.77;100.00;99495.78;3566399;40;9728;-61
2021/04/21 03:21:58;;;;;;;;;80.00;60.00;;;;;4.64;100.00;99495.41;3567066;40;9490;-61
2021/04/21 03:24:30;;;;;;;;;81.75;62.50;;;;;4.78;100.00;99502.81;3569830;40;9358;-61
2021/04/21 03:27:04;;;;;;;;;80.75;60.25;;;;;4.61;100.00;99495.53;3568478;40;9726;-61
2021/04/21 03:29:44;;;;;;;;;85.00;59.00;;;;;4.66;100.00;99495.34;3577101;40;9936;-61
2021/04/21 03:32:26;;;;;;;;;83.50;61.00;;;;;4.49;100.00;99507.50;3584441;40;10250;-62
2021/04/21 03:34:57;;;;;;;;;78.25;55.00;;;;;4.53;100.00;99500.28;3570459;40;9414;-61
2021/04/21 03:38:16;;;;;;;;;88.25;61.75;;;;;4.49;100.00;99499.53;3566221;40;9557;-61
2021/04/21 03:40:44;;;;;;;;;84.50;60.75;;;;;4.55;100.00;99507.25;3549998;40;9359;-60
2021/04/21 03:43:11;;;;;;;;;80.25;59.25;;;;;4.58;100.00;99499.19;3571608;40;9813;-61
2021/04/21 03:45:44;;;;;;;;;85.00;61.00;;;;;4.59;100.00;99508.03;3567449;40;10014;-61
2021/04/21 03:48:12;;;;;;;;;81.50;60.50;;;;;4.45;100.00;99495.28;3565908;40;9244;-61
2021/04/21 03:50:39;;;;;;;;;85.25;62.00;;;;;4.39;100.00;99500.81;3584360;40;9282;-61
2021/04/21 03:53:09;;;;;;;;;98.75;62.75;;;;;3.94;100.00;99501.66;3569567;40;9406;-61
2021/04/21 03:55:37;;;;;;;;;90.75;65.25;;;;;4.11;100.00;99495.75;3575974;40;9292;-61
2021/04/21 03:58:11;;;;;;;;;46.00;24.25;;;;;3.51;100.00;99495.28;3575514;40;9284;-61
2021/04/21 04:00:41;;;;;;;;;81.50;60.00;;;;;3.78;100.00;99492.53;3570950;40;9280;-61
2021/04/21 04:03:17;;;;;;;;;69.50;51.75;;;;;3.73;100.00;99493.56;3575644;40;9756;-60
2021/04/21 04:06:04;;;;;;;;;75.00;53.75;;;;;3.85;100.00;99497.56;3575222;40;9254;-61
2021/04/21 04:08:48;;;;;;;;;67.25;48.50;;;;;3.04;100.00;99498.66;3579479;40;9540;-61
2021/04/21 04:11:22;;;;;;;;;55.00;39.25;;;;;3.39;100.00;99501.03;3580339;40;9619;-61
2021/04/21 04:14:02;;;;;;;;;63.25;46.75;;;;;3.45;100.00;99501.69;3577906;40;9391;-61
2021/04/21 04:16:31;;;;;;;;;74.50;55.50;;;;;4.28;100.00;99506.56;3569176;40;9381;-61
2021/04/21 04:19:01;;;;;;;;;84.50;60.50;;;;;3.44;100.00;99515.00;3568714;40;9897;-61
2021/04/21 04:21:35;;;;;;;;;73.50;50.25;;;;;3.30;100.00;99513.69;3569464;40;9657;-61
2021/04/21 04:24:07;;;;;;;;;80.75;57.25;;;;;3.89;100.00;99517.78;3570829;40;9236;-61
2021/04/21 04:26:37;;;;;;;;;48.50;31.75;;;;;3.53;100.00;99525.31;3569048;40;10367;-61
2021/04/21 04:29:04;;;;;;;;;71.75;50.50;;;;;3.21;100.00;99522.00;3570306;40;9716;-62
2021/04/21 04:31:35;;;;;;;;;74.00;57.50;;;;;3.28;100.00;99525.28;3570055;40;9237;-61
2021/04/21 04:34:07;;;;;;;;;75.75;53.75;;;;;3.65;100.00;99527.50;3569093;40;9371;-61
2021/04/21 04:36:38;;;;;;;;;68.75;51.00;;;;;4.36;100.00;99532.84;3570253;40;9672;-60
2021/04/21 04:39:08;;;;;;;;;75.25;51.50;;;;;4.79;100.00;99537.34;3570191;40;9743;-60
2021/04/21 04:41:38;;;;;;;;;69.50;51.25;;;;;5.07;99.66;99542.38;3575479;40;9680;-61
2021/04/21 04:44:06;;;;;;;;;74.25;52.00;;;;;6.49;96.08;99542.38;3579189;40;9308;-61
2021/04/21 04:46:45;;;;;;;;;68.75;50.00;;;;;7.17;89.74;99545.31;3579748;40;10372;-61
2021/04/21 04:49:16;;;;;;;;;55.50;43.25;;;;;7.51;87.61;99553.44;3582143;40;10251;-61
2021/04/21 04:51:46;;;;;;;;;61.67;48.00;;;;;7.33;88.01;99547.22;3571396;40;10137;-61
2021/04/21 04:54:15;;;;;;;;;64.25;47.50;;;;;7.85;86.14;99549.88;3569404;40;10446;-62
2021/04/21 04:56:45;;;;;;;;;60.67;43.00;;;;;7.22;88.42;99553.94;3570111;40;10161;-62
2021/04/21 04:59:14;;;;;;;;;57.67;45.67;;;;;6.64;91.87;99551.47;3569264;40;10081;-61
2021/04/21 05:01:53;;;;;;;;;56.33;43.33;;;;;6.91;91.60;99543.91;3578136;40;10260;-61
2021/04/21 05:04:39;;;;;;;;;59.67;46.33;;;;;6.66;92.63;99554.94;3579215;40;10213;-62
2021/04/21 05:07:08;;;;;;;;;61.00;46.00;;;;;6.86;94.55;99555.75;3571320;40;10174;-62
2021/04/21 05:09:46;;;;;;;;;63.00;48.00;;;;;7.02;92.84;99552.25;3569198;40;10159;-61
2021/04/21 05:12:14;;;;;;;;;65.00;49.33;;;;;7.33;92.52;99547.22;3578747;40;10245;-61
2021/04/21 05:14:46;;;;;;;;;64.00;50.33;;;;;8.42;88.16;99555.72;3578745;40;10329;-61
2021/04/21 05:17:42;;;;;;;;;58.67;45.67;;;;;9.91;82.61;99554.31;3579034;40;10178;-61
2021/04/21 05:20:27;;;;;;;;;57.33;44.67;;;;;10.18;78.90;99560.63;3568145;40;10026;-62
2021/04/21 05:23:39;;;;;;;;;58.67;44.00;;;;;8.89;84.73;99567.41;3567962;40;10079;-61
2021/04/21 05:26:44;;;;;;;;;74.00;57.33;;;;;8.10;90.59;99562.78;3564712;40;10201;-61
2021/04/21 05:30:09;;;;;;;;;57.67;45.33;;;;;8.79;86.58;99567.06;3575876;40;10513;-61
2021/04/21 05:33:13;;;;;;;;;68.00;50.33;;;;;9.09;87.14;99572.50;3567772;40;10166;-61
2021/04/21 05:36:16;;;;;;;;;61.00;46.67;;;;;10.31;81.71;99571.50;3567614;40;10010;-61
2021/04/21 05:39:01;;;;;;;;;63.33;47.00;;;;;10.48;80.06;99573.16;3572602;40;10590;-62
2021/04/21 05:42:21;;;;;;;;;58.00;45.67;;;;;10.39;79.07;99581.75;3569509;40;9922;-62
2021/04/21 05:45:35;;;;;;;;;60.00;46.67;;;;;10.80;79.02;99583.66;3566920;40;9871;-62
2021/04/21 05:48:33;;;;;;;;;57.67;43.33;;;;;10.54;80.61;99583.50;3551752;40;10000;-62
2021/04/21 05:51:45;;;;;;;;;60.67;45.67;;;;;11.10;78.79;99581.66;3568438;40;9931;-62
2021/04/21 05:54:58;;;;;;;;;65.00;48.33;;;;;10.11;83.33;99580.78;3567485;40;9886;-62
2021/04/21 05:57:46;;;;;;;;;58.67;45.00;;;;;10.74;79.67;99587.56;3567846;40;9885;-62
2021/04/21 06:01:04;;;;;;;;;58.33;46.00;;;;;9.76;83.40;99591.78;3568429;40;10330;-62
2021/04/21 06:03:35;;;;;;;;;61.67;46.67;;;;;9.30;87.92;99589.16;3561762;40;10061;-62
2021/04/21 06:06:04;;;;;;;;;62.67;52.00;;;;;9.35;88.11;99588.91;3574233;40;9940;-62
2021/04/21 06:08:33;;;;;;;;;62.00;48.00;;;;;9.50;86.96;99584.44;3567724;40;10582;-62
2021/04/21 06:11:01;;;;;;;;;61.67;49.33;;;;;9.85;85.02;99591.25;3572850;40;9955;-62
2021/04/21 06:13:30;;;;;;;;;59.00;47.33;;;;;10.65;83.63;99586.34;3594219;40;10038;-62
2021/04/21 06:15:57;;;;;;;;;60.00;47.00;;;;;11.45;79.47;99597.28;3587836;40;9860;-62
2021/04/21 06:18:25;;;;;;;;;65.67;48.00;;;;;12.17;77.17;99599.63;3587536;40;9888;-63
2021/04/21 06:20:53;;;;;;;;;64.00;48.67;;;;;11.26;80.69;99586.88;3579169;40;9852;-63
2021/04/21 06:23:26;;;;;;;;;60.67;49.00;;;;;13.04;75.14;99595.22;3574484;40;10085;-62
2021/04/21 06:26:02;;;;;;;;;54.25;42.50;;;;;13.46;70.02;99595.75;3576273;40;11359;-63
2021/04/21 06:28:30;;;;;;;;;54.33;45.00;;;;;13.55;71.78;99598.59;3583120;40;10426;-63
2021/04/21 06:31:15;;;;;;;;;54.75;44.25;;;;;13.79;70.93;99597.72;3584915;40;10777;-63
2021/04/21 06:33:45;;;;;;;;;56.25;46.25;;;;;16.53;61.08;99597.88;3577225;40;14094;-63
2021/04/21 06:36:14;;;;;;;;;52.75;43.25;;;;;15.73;63.23;99604.75;3577465;40;14174;-63
2021/04/21 06:38:42;;;;;;;;;55.75;44.50;;;;;18.58;54.55;99611.59;3577299;40;14076;-64
2021/04/21 06:41:10;;;;;;;;;51.25;40.25;;;;;19.48;52.34;99612.81;3576811;40;14065;-64
2021/04/21 06:43:38;;;;;;;;;47.25;39.75;;;;;20.48;49.46;99618.13;3577397;40;14199;-64
2021/04/21 06:46:10;;;;;;;;;49.50;38.25;;;;;18.97;55.01;99619.66;3576916;40;14875;-64
2021/04/21 06:48:39;;;;;;;;;48.50;39.75;;;;;19.43;53.10;99615.13;3577366;40;14884;-65
2021/04/21 06:51:13;;;;;;;;;46.25;39.00;;;;;19.41;52.90;99616.28;3587480;40;14097;-64
2021/04/21 06:53:42;;;;;;;;;52.00;42.00;;;;;17.91;58.76;99618.00;3587459;40;14045;-63
2021/04/21 06:56:11;;;;;;;;;47.00;39.00;;;;;19.07;54.30;99623.19;3578047;40;14085;-63
2021/04/21 06:58:39;;;;;;;;;47.75;39.00;;;;;21.08;48.74;99629.09;3584167;40;14116;-63
2021/04/21 07:01:17;;;;;;;;;46.25;38.25;;;;;20.78;49.72;99631.31;3576874;40;13996;-63
2021/04/21 07:03:45;;;;;;;;;49.00;38.75;;;;;20.76;49.16;99629.78;3576849;40;14120;-63
2021/04/21 07:06:13;;;;;;;;;45.75;38.50;;;;;19.36;52.53;99632.22;3576537;40;14043;-64
2021/04/21 07:08:40;;;;;;;;;31.25;28.75;;;;;19.67;52.23;99628.19;3576759;40;14080;-62
2021/04/21 07:11:17;;;;;;;;;49.00;40.00;;;;;19.65;52.47;99634.75;3576002;40;13989;-63
2021/04/21 07:13:46;;;;;;;;;50.50;39.50;;;;;16.64;63.63;99628.47;3575456;40;13985;-63
2021/04/21 07:16:28;;;;;;;;;55.25;46.00;;;;;15.55;67.21;99628.75;3578967;40;13973;-63
2021/04/21 07:19:12;;;;;;;;;52.00;39.50;;;;;18.53;60.00;99641.09;3585720;40;13090;-64
2021/04/21 07:21:40;;;;;;;;;53.00;42.00;;;;;21.66;50.79;99646.56;3586343;40;14055;-64
2021/04/21 07:24:12;;;;;;;;;41.50;35.00;;;;;20.50;54.75;99643.38;3576592;40;14084;-64
2021/04/21 07:26:40;;;;;;;;;48.50;38.50;;;;;19.47;56.89;99642.91;3574946;40;14019;-64
2021/04/21 07:29:09;;;;;;;;;45.25;38.25;;;;;20.90;53.38;99651.00;3579637;40;14014;-64
2021/04/21 07:31:40;;;;;;;;;41.75;34.00;;;;;20.05;54.97;99639.78;3578385;40;14058;-64
2021/04/21 07:34:35;;;;;;;;;47.25;36.25;;;;;15.55;68.41;99645.00;3580595;40;14051;-63
2021/04/21 07:37:03;;;;;;;;;52.50;41.50;;;;;14.45;72.51;99642.06;3580013;40;14078;-63
2021/04/21 07:39:40;;;;;;;;;44.25;37.00;;;;;14.40;73.29;99635.28;3578125;40;14039;-63
2021/04/21 07:42:18;;;;;;;;;49.00;42.00;;;;;14.05;76.38;99647.00;3575067;40;14159;-64
2021/04/21 07:44:55;;;;;;;;;51.00;40.75;;;;;14.18;75.51;99647.78;3575917;40;14241;-64
2021/04/21 07:47:25;;;;;;;;;54.00;44.00;;;;;14.67;74.03;99643.97;3576907;40;14070;-64
2021/04/21 07:50:03;;;;;;;;;54.00;43.50;;;;;15.03;72.44;99650.09;3579439;40;14547;-64
2021/04/21 07:52:35;;;;;;;;;55.00;44.75;;;;;14.93;72.38;99649.16;3576356;40;14040;-64
2021/04/21 07:55:18;;;;;;;;;54.75;44.25;;;;;14.92;69.47;99650.13;3572827;40;15725;-64
2021/04/21 07:58:04;;;;;;;;;54.50;45.25;;;;;14.70;69.37;99654.53;3575439;40;14258;-64
2021/04/21 08:00:37;;;;;;;;;53.25;43.75;;;;;14.76;70.56;99647.78;3576493;40;14079;-64
2021/04/21 08:03:04;;;;;;;;;56.50;45.75;;;;;14.96;73.67;99648.06;3570681;40;14090;-64
2021/04/21 08:05:33;;;;;;;;;56.50;45.00;;;;;15.17;72.08;99651.72;3568400;40;14636;-64
2021/04/21 08:08:03;;;;;;;;;60.75;44.00;;;;;15.11;71.96;99663.00;3566289;40;14082;-64
2021/04/21 08:10:34;;;;;;;;;59.25;46.00;;;;;15.18;71.59;99658.84;3567303;40;14264;-64
2021/04/21 08:13:03;;;;;;;;;53.75;44.00;;;;;15.54;70.52;99654.97;3571524;40;14597;-64
2021/04/21 08:15:36;;;;;;;;;63.00;45.50;;;;;15.23;71.73;99661.19;3566785;40;14573;-64
2021/04/21 08:18:10;;;;;;;;;56.00;45.00;;;;;15.73;68.47;99654.31;3565884;40;14091;-64
2021/04/21 08:20:51;;;;;;;;;61.00;46.25;;;;;15.48;67.60;99668.13;3568579;40;14067;-64
2021/04/21 08:23:30;;;;;;;;;51.75;42.00;;;;;15.33;66.09;99668.41;3573433;40;14059;-64
2021/04/21 08:25:58;;;;;;;;;52.75;42.00;;;;;16.00;65.99;99656.53;3573794;40;14197;-64
2021/04/21 08:28:25;;;;;;;;;52.50;43.50;;;;;15.76;67.04;99670.31;3565675;40;14593;-63
2021/04/21 08:30:58;;;;;;;;;55.00;44.00;;;;;15.93;67.27;99671.63;3566350;40;14089;-63
2021/04/21 08:33:26;;;;;;;;;54.75;45.50;;;;;15.85;67.72;99665.09;3572638;40;14058;-64
2021/04/21 08:35:53;;;;;;;;;52.00;41.75;;;;;16.15;67.49;99670.66;3575161;40;14113;-63
2021/04/21 08:38:20;;;;;;;;;51.00;42.75;;;;;16.55;65.57;99666.34;3576477;40;14174;-63
2021/04/21 08:40:47;;;;;;;;;55.75;44.75;;;;;16.68;63.85;99672.44;3569823;40;14280;-64
2021/04/21 08:43:20;;;;;;;;;54.25;43.50;;;;;15.71;65.79;99671.69;3573325;40;14059;-63
2021/04/21 08:45:48;;;;;;;;;56.50;45.25;;;;;15.84;66.04;99672.38;3577448;40;14102;-64
2021/04/21 08:48:16;;;;;;;;;51.50;41.25;;;;;15.75;65.62;99673.16;3583463;40;14157;-63
2021/04/21 08:50:44;;;;;;;;;52.75;41.25;;;;;15.98;65.37;99672.09;3585239;40;14077;-63
2021/04/21 08:53:12;;;;;;;;;56.75;45.00;;;;;16.25;62.96;99670.72;3594240;39;14061;-63
2021/04/21 08:55:40;;;;;;;;;53.75;42.50;;;;;16.55;64.04;99669.06;3567160;40;14065;-63
2021/04/21 08:58:10;;;;;;;;;52.75;43.25;;;;;16.10;62.64;99666.63;3577258;40;14064;-63
2021/04/21 09:00:39;;;;;;;;;53.00;42.75;;;;;16.22;63.70;99668.28;3576131;40;14156;-64
2021/04/21 09:03:07;;;;;;;;;54.00;43.25;;;;;15.93;64.29;99670.72;3574602;40;14085;-62
2021/04/21 09:05:34;;;;;;;;;51.50;39.25;;;;;15.76;63.03;99664.03;3569809;40;14087;-62
2021/04/21 09:08:02;;;;;;;;;53.25;44.00;;;;;16.26;62.98;99667.00;3574687;40;14075;-63
2021/04/21 09:10:29;;;;;;;;;50.75;42.25;;;;;16.57;61.86;99669.81;3587809;40;14271;-63
2021/04/21 09:12:56;;;;;;;;;53.25;42.50;;;;;16.76;61.97;99666.34;3579555;40;14047;-63
2021/04/21 09:15:22;;;;;;;;;42.75;38.00;;;;;16.56;63.23;99668.06;3571046;40;14088;-63
2021/04/21 09:17:55;;;;;;;;;53.25;43.00;;;;;16.49;59.76;99661.47;3575122;40;14057;-62
2021/04/21 09:20:26;;;;;;;;;48.50;40.00;;;;;16.25;61.14;99665.31;3567283;40;14570;-63
2021/04/21 09:23:18;;;;;;;;;42.50;38.00;;;;;16.52;58.52;99664.78;3568603;40;14054;-62
2021/04/21 09:25:53;;;;;;;;;51.00;41.00;;;;;16.43;58.36;99662.88;3568004;40;14071;-63
2021/04/21 09:28:24;;;;;;;;;55.25;44.00;;;;;16.37;61.73;99661.53;3567784;40;14091;-62
2021/04/21 09:30:58;;;;;;;;;54.00;42.50;;;;;17.12;62.58;99664.97;3567748;40;14324;-63
2021/04/21 09:33:28;;;;;;;;;58.25;46.00;;;;;16.48;63.08;99662.44;3572301;40;14078;-62
2021/04/21 09:35:56;;;;;;;;;54.75;44.00;;;;;16.56;61.94;99663.53;3576093;40;14188;-62
2021/04/21 09:38:27;;;;;;;;;58.50;45.00;;;;;16.65;63.42;99659.16;3577806;40;14120;-62
2021/04/21 09:40:58;;;;;;;;;57.00;44.00;;;;;16.70;63.89;99658.75;3569910;40;14633;-62
2021/04/21 09:43:34;;;;;;;;;58.75;46.25;;;;;17.00;64.69;99664.19;3567866;40;14085;-62
2021/04/21 09:46:04;;;;;;;;;57.00;45.50;;;;;16.79;62.59;99669.66;3567765;40;14281;-62
2021/04/21 09:48:37;;;;;;;;;57.25;45.75;;;;;16.97;61.89;99666.34;3567703;40;14090;-63
2021/04/21 09:51:11;;;;;;;;;56.50;45.75;;;;;16.74;63.76;99655.63;3576686;40;14101;-61
2021/04/21 09:53:42;;;;;;;;;59.00;47.00;;;;;17.37;62.31;99666.34;3567756;40;14103;-62
2021/04/21 09:56:26;;;;;;;;;58.00;47.00;;;;;17.28;61.66;99665.31;3567449;40;14130;-62
2021/04/21 09:59:00;;;;;;;;;54.75;46.00;;;;;17.36;60.18;99666.50;3567667;40;14172;-62
2021/04/21 10:01:37;;;;;;;;;61.50;48.00;;;;;17.03;63.23;99652.22;3576023;40;14039;-63
2021/04/21 10:04:25;;;;;;;;;61.00;46.75;;;;;16.87;63.01;99655.44;3572653;40;14093;-62
2021/04/21 10:06:55;;;;;;;;;57.75;46.25;;;;;17.26;62.18;99663.72;3567271;40;14089;-63
2021/04/21 10:09:26;;;;;;;;;54.00;45.50;;;;;16.52;63.32;99648.50;3567697;40;14108;-62
2021/04/21 10:12:15;;;;;;;;;55.50;44.75;;;;;16.76;62.92;99648.22;3567588;40;14154;-62
2021/04/21 10:14:44;;;;;;;;;57.50;47.25;;;;;16.91;62.44;99650.63;3575095;40;14301;-62
2021/04/21 10:17:13;;;;;;;;;58.25;45.25;;;;;17.59;61.81;99643.53;3567544;40;14120;-61
2021/04/21 10:19:42;;;;;;;;;52.00;42.50;;;;;17.90;60.79;99654.31;3567197;40;14079;-62
2021/04/21 10:22:13;;;;;;;;;54.75;42.50;;;;;17.68;55.52;99648.13;3568183;40;14100;-62
2021/04/21 10:24:41;;;;;;;;;50.75;41.75;;;;;17.53;57.60;99647.66;3577661;40;14100;-62
2021/04/21 10:27:08;;;;;;;;;50.75;42.50;;;;;17.66;57.08;99647.38;3573283;40;14092;-61
2021/04/21 10:29:36;;;;;;;;;53.00;42.00;;;;;18.13;56.94;99644.88;3567365;40;14100;-62
2021/04/21 10:32:04;;;;;;;;;48.25;40.00;;;;;18.20;52.53;99643.31;3569170;40;14043;-62
2021/04/21 10:34:32;;;;;;;;;50.25;41.00;;;;;18.13;53.80;99644.03;3577403;40;14086;-61
2021/04/21 10:37:00;;;;;;;;;47.25;39.75;;;;;17.89;53.74;99642.59;3577751;40;14090;-62
2021/04/21 10:39:34;;;;;;;;;48.00;37.50;;;;;18.47;51.96;99641.69;3577032;40;14205;-62
2021/04/21 10:42:15;;;;;;;;;46.00;37.25;;;;;18.34;52.49;99627.53;3566492;40;14287;-62
2021/04/21 10:44:47;;;;;;;;;47.50;38.00;;;;;17.28;52.53;99627.31;3566783;40;14025;-61
2021/04/21 10:47:47;;;;;;;;;53.50;41.25;;;;;17.26;53.57;99629.31;3567634;40;14093;-62
2021/04/21 10:50:42;;;;;;;;;46.50;37.50;;;;;17.34;53.24;99634.91;3581649;40;14271;-62
2021/04/21 10:53:45;;;;;;;;;47.25;38.25;;;;;17.20;51.97;99635.31;3586134;40;14066;-61
2021/04/21 10:56:24;;;;;;;;;44.75;36.25;;;;;17.31;49.97;99632.47;3548221;40;14158;-61
2021/04/21 10:58:56;;;;;;;;;42.50;36.75;;;;;17.18;51.55;99636.44;3572724;40;14056;-61
2021/04/21 11:01:35;;;;;;;;;43.50;35.75;;;;;17.32;50.57;99628.78;3573237;40;14065;-62
2021/04/21 11:04:06;;;;;;;;;45.00;36.00;;;;;18.13;50.92;99634.00;3566878;40;14101;-62
2021/04/21 11:06:39;;;;;;;;;37.50;34.50;;;;;18.25;47.75;99631.16;3566336;40;14089;-62
2021/04/21 11:09:11;;;;;;;;;38.50;34.50;;;;;18.62;48.35;99626.63;3567207;40;14070;-61
2021/04/21 11:11:48;;;;;;;;;35.25;31.00;;;;;18.57;43.77;99628.94;3573407;40;14038;-61
2021/04/21 11:14:47;;;;;;;;;40.75;33.75;;;;;17.85;49.28;99618.56;3573096;40;14018;-62
2021/04/21 11:17:15;;;;;;;;;45.75;36.75;;;;;17.08;51.65;99620.13;3566277;40;14069;-62
2021/04/21 11:19:44;;;;;;;;;50.75;42.00;;;;;16.09;52.16;99608.00;3566872;40;14213;-62
2021/04/21 11:22:20;;;;;;;;;44.75;39.00;;;;;16.53;53.74;99608.72;3569393;40;14076;-62
2021/04/21 11:25:27;;;;;;;;;40.50;35.50;;;;;16.48;54.28;99608.25;3576921;40;14241;-62
2021/04/21 11:27:55;;;;;;;;;45.00;36.00;;;;;16.09;50.95;99608.00;3571317;40;14057;-62
2021/04/21 11:30:48;;;;;;;;;42.75;35.00;;;;;16.29;51.84;99601.72;3576329;40;14077;-62
2021/04/21 11:33:52;;;;;;;;;37.50;34.00;;;;;16.12;52.88;99602.34;3570542;40;14097;-62
2021/04/21 11:36:54;;;;;;;;;39.50;35.00;;;;;15.67;54.76;99594.41;3576713;40;14128;-62
2021/04/21 11:39:46;;;;;;;;;46.50;36.75;;;;;15.86;52.18;99594.59;3577169;40;14093;-62
2021/04/21 11:42:40;;;;;;;;;41.00;35.00;;;;;15.53;56.20;99596.44;3575362;40;14121;-62
2021/04/21 11:45:31;;;;;;;;;45.25;36.00;;;;;15.44;56.22;99596.31;3575809;40;14085;-62
2021/04/21 11:48:04;;;;;;;;;41.75;35.00;;;;;15.88;56.40;99589.91;3576547;40;14677;-63
2021/04/21 11:50:39;;;;;;;;;44.50;37.75;;;;;17.23;54.29;99591.59;3585374;40;14070;-61
2021/04/21 11:53:22;;;;;;;;;47.50;39.00;;;;;16.15;57.34;99588.53;3575034;40;14079;-62
2021/04/21 11:55:59;;;;;;;;;34.25;29.50;;;;;16.22;55.62;99576.19;3572400;40;14283;-62
2021/04/21 11:58:33;;;;;;;;;36.50;32.50;;;;;16.09;54.68;99575.50;3576025;40;14169;-62
2021/04/21 12:01:12;;;;;;;;;42.00;34.75;;;;;15.97;53.80;99575.56;3576612;40;14106;-62
2021/04/21 12:03:44;;;;;;;;;40.75;33.50;;;;;15.61;53.08;99581.38;3576723;40;14618;-61
2021/04/21 12:06:17;;;;;;;;;36.00;32.00;;;;;15.77;53.93;99576.41;3576875;40;14105;-62
2021/04/21 12:08:47;;;;;;;;;36.50;31.25;;;;;15.77;53.63;99569.16;3576787;40;14250;-62
2021/04/21 12:11:33;;;;;;;;;41.75;34.75;;;;;15.82;52.83;99576.03;3576699;40;14099;-62